Time;durP1;ratioP1;P1;durP2;ratioP2;P2;SDS_P1;SDS_P2;PMS_P1;PMS_P2;Temp;Humidity;BMP_temperature;BMP_pressure;BME280_temperature;BME280_humidity;BME280_pressure;Samples;Min_cycle;Max_cycle;Signal;HPM_P1;HPM_P2
2023/04/13 00:01:14;;;;;;;4.17;3.33;;;;;;;10.49;100.00;98026.50;4901524;29;20200;-83
2023/04/13 00:03:41;;;;;;;5.53;4.00;;;;;;;10.49;100.00;98024.63;4893533;29;20198;-82
2023/04/13 00:06:09;;;;;;;6.10;3.73;;;;;;;10.46;100.00;98025.13;4900642;29;20196;-82
2023/04/13 00:08:41;;;;;;;3.93;3.30;;;;;;;10.49;100.00;98023.81;4922021;29;20231;-83
2023/04/13 00:11:09;;;;;;;5.30;4.70;;;;;;;10.49;100.00;98021.13;4902408;29;20202;-81
2023/04/13 00:13:39;;;;;;;5.00;4.10;;;;;;;10.51;100.00;98021.66;4906157;29;20210;-82
2023/04/13 00:16:11;;;;;;;4.53;3.67;;;;;;;10.47;100.00;98021.38;4903034;29;20242;-84
2023/04/13 00:18:38;;;;;;;4.47;3.30;;;;;;;10.46;100.00;98024.31;4896668;29;20245;-83
2023/04/13 00:21:08;;;;;;;5.20;3.90;;;;;;;10.46;100.00;98026.97;4918605;29;20289;-83
2023/04/13 00:23:36;;;;;;;3.90;3.40;;;;;;;10.45;100.00;98030.75;4902644;29;20258;-82
2023/04/13 00:26:03;;;;;;;4.17;3.43;;;;;;;10.45;100.00;98034.19;4904696;29;20246;-82
2023/04/13 00:28:37;;;;;;;3.40;3.10;;;;;;;10.51;100.00;98029.69;4923248;29;20206;-83
2023/04/13 00:31:07;;;;;;;4.07;3.07;;;;;;;10.25;100.00;98031.41;4903529;29;20209;-83
2023/04/13 00:33:33;;;;;;;3.53;2.90;;;;;;;10.27;100.00;98031.94;4920128;29;20225;-81
2023/04/13 00:36:01;;;;;;;3.37;2.80;;;;;;;10.31;100.00;98034.94;4931205;29;20217;-82
2023/04/13 00:38:28;;;;;;;4.73;3.50;;;;;;;10.38;100.00;98032.81;4929239;29;20234;-83
2023/04/13 00:40:55;;;;;;;4.00;3.50;;;;;;;10.39;100.00;98032.56;4917397;29;20726;-84
2023/04/13 00:43:22;;;;;;;3.87;3.50;;;;;;;10.37;100.00;98029.34;4902602;29;20202;-82
2023/04/13 00:45:49;;;;;;;3.80;3.40;;;;;;;10.41;100.00;98022.41;4902229;29;20294;-82
2023/04/13 00:48:17;;;;;;;3.50;3.20;;;;;;;10.40;100.00;98020.00;4902355;29;20204;-82
2023/04/13 00:50:47;;;;;;;6.17;3.63;;;;;;;10.26;100.00;98025.00;4917434;29;20265;-82
2023/04/13 00:53:15;;;;;;;4.73;4.07;;;;;;;10.25;100.00;98015.34;4909739;29;20644;-83
2023/04/13 00:55:42;;;;;;;4.37;3.83;;;;;;;10.34;100.00;98024.50;4901618;29;20201;-82
2023/04/13 00:58:09;;;;;;;6.97;4.47;;;;;;;10.27;100.00;98018.53;4922437;29;20294;-82
2023/04/13 01:00:41;;;;;;;6.77;4.57;;;;;;;10.24;100.00;98018.25;4886156;29;20245;-82
2023/04/13 01:03:09;;;;;;;5.33;4.40;;;;;;;10.03;100.00;98028.75;4916524;29;20206;-82
2023/04/13 01:05:49;;;;;;;4.67;4.00;;;;;;;9.98;100.00;98027.94;4917079;29;20200;-82
2023/04/13 01:08:37;;;;;;;5.87;4.40;;;;;;;9.93;100.00;98026.00;4899359;29;20682;-82
2023/04/13 01:11:11;;;;;;;6.27;4.10;;;;;;;9.98;100.00;98028.75;4918626;29;20223;-81
2023/04/13 01:13:55;;;;;;;4.90;4.27;;;;;;;10.00;100.00;98028.47;4919897;29;20198;-82
2023/04/13 01:16:29;;;;;;;4.93;4.17;;;;;;;10.02;100.00;98031.72;4903343;29;20206;-83
2023/04/13 01:18:57;;;;;;;4.67;3.90;;;;;;;10.04;100.00;98035.72;4891206;29;20246;-83
2023/04/13 01:21:28;;;;;;;4.30;3.90;;;;;;;10.07;100.00;98040.59;4867222;29;20207;-83
2023/04/13 01:24:34;;;;;;;5.00;4.10;;;;;;;10.06;100.00;98033.63;4890823;29;20207;-81
2023/04/13 01:27:33;;;;;;;4.20;3.80;;;;;;;10.15;100.00;98031.28;4882496;29;20205;-84
2023/04/13 01:30:01;;;;;;;5.23;3.80;;;;;;;10.10;100.00;98023.19;4824530;29;20227;-84
2023/04/13 01:32:29;;;;;;;4.80;4.00;;;;;;;10.11;100.00;98027.50;4897518;29;20230;-81
2023/04/13 01:34:56;;;;;;;6.57;4.40;;;;;;;10.28;100.00;98038.09;4896402;29;20672;-83
2023/04/13 01:37:24;;;;;;;5.03;3.93;;;;;;;10.36;100.00;98035.75;4882596;29;20207;-82
2023/04/13 01:40:00;;;;;;;4.83;4.33;;;;;;;10.29;100.00;98032.50;4867859;29;20804;-84
2023/04/13 01:42:39;;;;;;;6.43;4.10;;;;;;;10.01;100.00;98032.75;4890767;29;20213;-83
2023/04/13 01:45:10;;;;;;;5.50;4.43;;;;;;;9.95;100.00;98033.75;4897823;29;20195;-86
2023/04/13 01:47:47;;;;;;;4.87;4.40;;;;;;;9.71;100.00;98036.75;4895407;29;20198;-83
2023/04/13 01:50:50;;;;;;;6.50;4.70;;;;;;;9.77;100.00;98034.13;4885622;29;20742;-85
2023/04/13 01:53:38;;;;;;;7.03;4.93;;;;;;;9.74;100.00;98038.13;4870125;29;20210;-83
2023/04/13 01:56:08;;;;;;;7.27;5.03;;;;;;;9.62;100.00;98032.91;4881694;29;20293;-82
2023/04/13 01:58:35;;;;;;;6.87;5.03;;;;;;;9.69;100.00;98033.53;4867000;29;20285;-82
2023/04/13 02:01:13;;;;;;;5.60;5.10;;;;;;;9.65;100.00;98037.78;4881551;29;20234;-83
2023/04/13 02:03:45;;;;;;;5.20;4.70;;;;;;;9.66;100.00;98035.88;4900980;29;20284;-85
2023/04/13 02:06:12;;;;;;;5.37;4.80;;;;;;;9.50;100.00;98053.66;4869653;29;20222;-84
2023/04/13 02:08:40;;;;;;;7.87;5.17;;;;;;;9.48;100.00;98089.69;4882647;29;20203;-86
2023/04/13 02:11:09;;;;;;;5.50;4.90;;;;;;;9.47;100.00;98086.22;4893966;29;20306;-83
2023/04/13 02:13:35;;;;;;;6.03;4.77;;;;;;;9.46;100.00;98092.66;4897282;29;20199;-82
2023/04/13 02:16:06;;;;;;;6.03;5.13;;;;;;;9.49;100.00;98097.47;4897166;29;20203;-82
2023/04/13 02:18:36;;;;;;;9.07;5.40;;;;;;;9.44;100.00;98089.41;4902386;29;20325;-83
2023/04/13 02:21:08;;;;;;;7.47;5.33;;;;;;;9.47;100.00;98090.78;4900302;29;20301;-85
2023/04/13 02:23:36;;;;;;;5.43;4.93;;;;;;;9.47;100.00;98088.09;4900363;29;20205;-83
2023/04/13 02:26:08;;;;;;;5.57;4.90;;;;;;;9.46;100.00;98089.16;4900176;29;20234;-87
2023/04/13 02:28:37;;;;;;;5.37;4.80;;;;;;;9.43;100.00;98090.44;4917561;29;20732;-84
2023/04/13 02:31:04;;;;;;;5.50;5.00;;;;;;;9.40;100.00;98087.47;4915738;29;20262;-84
2023/04/13 02:33:33;;;;;;;5.87;5.27;;;;;;;9.46;100.00;98095.31;4913685;29;20199;-84
2023/04/13 02:36:02;;;;;;;6.00;5.07;;;;;;;9.46;100.00;98099.84;4923280;29;20226;-87
2023/04/13 02:38:36;;;;;;;6.27;5.40;;;;;;;9.45;100.00;98106.25;4911555;29;20222;-86
2023/04/13 02:41:21;;;;;;;7.47;5.10;;;;;;;9.33;100.00;98098.38;4913570;29;20234;-85
2023/04/13 02:43:51;;;;;;;6.37;5.20;;;;;;;9.21;100.00;98105.69;4887111;29;20667;-85
2023/04/13 02:46:23;;;;;;;7.47;5.70;;;;;;;9.11;100.00;98108.22;4902845;29;20672;-85
2023/04/13 02:49:02;;;;;;;6.10;5.50;;;;;;;9.07;100.00;98109.75;4896244;29;20220;-85
2023/04/13 02:51:35;;;;;;;6.00;5.40;;;;;;;9.05;100.00;98106.53;4917825;29;20307;-86
2023/04/13 02:54:10;;;;;;;7.37;5.17;;;;;;;9.03;100.00;98106.78;4900626;29;20206;-84
2023/04/13 02:56:40;;;;;;;7.03;5.43;;;;;;;9.10;100.00;98114.59;4900369;29;20266;-86
2023/04/13 02:59:10;;;;;;;6.43;5.10;;;;;;;9.12;100.00;98105.31;4919156;29;20196;-83
2023/04/13 03:01:40;;;;;;;7.37;5.53;;;;;;;9.15;100.00;98118.16;4912694;29;20194;-82
2023/04/13 03:04:10;;;;;;;6.67;5.10;;;;;;;9.14;100.00;98113.88;4918215;29;20236;-83
2023/04/13 03:06:37;;;;;;;6.53;5.73;;;;;;;9.18;100.00;98117.69;4899521;29;20209;-84
2023/04/13 03:09:04;;;;;;;6.47;5.33;;;;;;;9.22;100.00;98115.31;4913342;29;20207;-83
2023/04/13 03:11:43;;;;;;;7.00;5.70;;;;;;;9.24;100.00;98121.22;4916062;29;20198;-83
2023/04/13 03:14:20;;;;;;;6.27;5.60;;;;;;;9.29;100.00;98129.28;4917612;29;20296;-83
2023/04/13 03:16:53;;;;;;;6.03;5.43;;;;;;;9.26;100.00;98127.13;4916625;29;20194;-85
2023/04/13 03:19:25;;;;;;;6.63;5.80;;;;;;;9.24;100.00;98134.56;4899918;29;20285;-81
2023/04/13 03:21:54;;;;;;;6.03;5.30;;;;;;;9.29;100.00;98139.97;4915864;29;20739;-83
2023/04/13 03:24:27;;;;;;;6.30;5.30;;;;;;;9.20;100.00;98138.78;4917520;29;20290;-82
2023/04/13 03:26:57;;;;;;;6.00;5.40;;;;;;;9.17;100.00;98150.78;4903233;29;20213;-85
2023/04/13 03:29:32;;;;;;;9.00;5.83;;;;;;;9.24;100.00;98151.41;4909693;29;20674;-82
2023/04/13 03:32:04;;;;;;;6.30;5.70;;;;;;;9.21;100.00;98148.44;4912284;29;20209;-81
2023/04/13 03:34:42;;;;;;;6.90;5.73;;;;;;;9.19;100.00;98143.31;4892146;29;20198;-82
2023/04/13 03:37:11;;;;;;;6.27;5.67;;;;;;;9.20;100.00;98149.47;4922830;29;20289;-83
2023/04/13 03:39:38;;;;;;;7.23;6.37;;;;;;;9.13;100.00;98148.88;4923545;29;20214;-84
2023/04/13 03:42:15;;;;;;;7.37;5.87;;;;;;;9.15;100.00;98152.06;4920042;29;20202;-84
2023/04/13 03:44:50;;;;;;;7.90;5.80;;;;;;;9.11;100.00;98149.09;4915821;29;20202;-85
2023/04/13 03:47:17;;;;;;;6.43;5.73;;;;;;;9.12;100.00;98157.94;4906476;29;20285;-84
2023/04/13 03:49:46;;;;;;;6.60;5.83;;;;;;;9.02;100.00;98163.13;4911522;29;20278;-85
2023/04/13 03:52:15;;;;;;;6.03;5.43;;;;;;;9.01;100.00;98162.31;4903217;29;20672;-85
2023/04/13 03:54:50;;;;;;;8.33;6.20;;;;;;;8.98;100.00;98156.66;4905252;29;20206;-82
2023/04/13 03:57:17;;;;;;;6.73;5.97;;;;;;;9.05;100.00;98165.31;4917456;29;20205;-84
2023/04/13 03:59:48;;;;;;;9.47;6.67;;;;;;;9.05;100.00;98163.44;4909237;29;20210;-84
2023/04/13 04:02:24;;;;;;;7.33;6.37;;;;;;;9.07;100.00;98176.56;4904724;29;20213;-84
2023/04/13 04:04:51;;;;;;;9.03;6.23;;;;;;;8.99;100.00;98167.09;4902879;29;20281;-85
2023/04/13 04:07:22;;;;;;;5.93;5.40;;;;;;;9.05;100.00;98168.78;4926012;29;20202;-85
2023/04/13 04:09:50;;;;;;;8.00;6.93;;;;;;;9.13;100.00;98170.25;4903201;29;20225;-85
2023/04/13 04:12:22;;;;;;;7.07;6.33;;;;;;;9.11;100.00;98172.34;4903086;29;20206;-84
2023/04/13 04:14:48;;;;;;;7.63;6.83;;;;;;;8.96;100.00;98180.16;4923224;29;20422;-85
2023/04/13 04:17:21;;;;;;;8.93;6.53;;;;;;;8.91;100.00;98186.22;4928728;29;20230;-86
2023/04/13 04:19:49;;;;;;;9.10;7.23;;;;;;;8.86;100.00;98185.31;4922848;29;20236;-87
2023/04/13 04:22:28;;;;;;;7.77;6.80;;;;;;;8.83;100.00;98189.28;4917492;29;20224;-86
2023/04/13 04:25:00;;;;;;;7.50;6.70;;;;;;;8.82;100.00;98188.47;4911553;29;20201;-85
2023/04/13 04:27:30;;;;;;;7.63;6.73;;;;;;;8.77;100.00;98188.38;4913494;29;20241;-84
2023/04/13 04:30:03;;;;;;;8.40;7.60;;;;;;;8.82;100.00;98182.31;4917620;29;20669;-87
2023/04/13 04:32:54;;;;;;;8.57;6.93;;;;;;;8.85;100.00;98179.16;4903123;29;20206;-84
2023/04/13 04:35:34;;;;;;;8.30;7.20;;;;;;;8.74;100.00;98185.38;4905665;29;20209;-85
2023/04/13 04:38:08;;;;;;;7.83;7.00;;;;;;;8.76;100.00;98175.28;4918449;29;20248;-84
2023/04/13 04:40:36;;;;;;;8.43;7.37;;;;;;;8.77;100.00;98176.91;4920754;29;20203;-83
2023/04/13 04:43:05;;;;;;;7.30;6.53;;;;;;;8.82;100.00;98176.97;4902169;29;20682;-85
2023/04/13 04:45:56;;;;;;;8.20;7.13;;;;;;;8.83;100.00;98179.41;4919751;29;20219;-87
2023/04/13 04:48:25;;;;;;;9.13;8.23;;;;;;;8.79;100.00;98172.94;4902018;29;20199;-87
2023/04/13 04:50:56;;;;;;;8.33;7.40;;;;;;;8.88;100.00;98186.69;4917060;29;20226;-84
2023/04/13 04:53:27;;;;;;;10.77;7.83;;;;;;;8.83;100.00;98195.44;4917122;29;20214;-84
2023/04/13 04:55:55;;;;;;;8.33;7.47;;;;;;;8.80;100.00;98193.25;4907761;29;20203;-85
2023/04/13 04:58:43;;;;;;;9.27;7.70;;;;;;;8.79;100.00;98196.16;4907526;29;20206;-86
2023/04/13 05:01:11;;;;;;;8.80;7.60;;;;;;;8.81;100.00;98197.53;4904738;29;20207;-86
2023/04/13 05:03:39;;;;;;;9.13;8.23;;;;;;;8.81;100.00;98205.56;4917541;29;20226;-84
2023/04/13 05:06:24;;;;;;;9.30;8.33;;;;;;;8.88;100.00;98202.72;4890426;29;20206;-86
2023/04/13 05:08:50;;;;;;;10.00;9.00;;;;;;;8.94;100.00;98207.09;4916389;29;20209;-87
2023/04/13 05:11:19;;;;;;;9.10;8.20;;;;;;;8.83;100.00;98210.63;4901573;29;20222;-87
2023/04/13 05:13:46;;;;;;;8.77;7.50;;;;;;;8.87;100.00;98210.94;4917382;29;20194;-87
2023/04/13 05:16:20;;;;;;;8.90;8.00;;;;;;;8.84;100.00;98218.41;4918649;29;20195;-86
2023/04/13 05:18:49;;;;;;;7.67;6.87;;;;;;;8.86;100.00;98220.03;4901461;29;20789;-85
2023/04/13 05:21:29;;;;;;;8.57;7.13;;;;;;;8.93;100.00;98220.69;4901982;29;20221;-86
2023/04/13 05:23:58;;;;;;;6.97;6.27;;;;;;;8.97;100.00;98219.13;4917097;29;20230;-86
2023/04/13 05:26:27;;;;;;;7.60;6.90;;;;;;;8.99;100.00;98223.19;4885969;29;20198;-84
2023/04/13 05:28:57;;;;;;;8.27;7.03;;;;;;;9.07;100.00;98228.13;4903871;29;20202;-83
2023/04/13 05:31:28;;;;;;;9.30;7.90;;;;;;;8.99;100.00;98233.06;4899452;29;20586;-85
2023/04/13 05:34:00;;;;;;;9.30;8.30;;;;;;;9.04;100.00;98236.63;4914248;29;20194;-84
2023/04/13 05:36:31;;;;;;;9.87;8.13;;;;;;;9.07;100.00;98244.16;4905268;29;20766;-85
2023/04/13 05:39:03;;;;;;;8.13;7.33;;;;;;;9.16;100.00;98242.69;4916474;29;20606;-85
2023/04/13 05:41:32;;;;;;;7.77;7.07;;;;;;;9.16;100.00;98240.03;4907626;29;20285;-84
2023/04/13 05:44:07;;;;;;;8.17;7.27;;;;;;;9.27;100.00;98247.16;4900936;29;20202;-86
2023/04/13 05:46:35;;;;;;;8.83;7.50;;;;;;;9.27;100.00;98246.34;4900986;29;20202;-84
2023/04/13 05:49:04;;;;;;;10.13;8.80;;;;;;;9.29;100.00;98253.03;4911539;29;20202;-85
2023/04/13 05:51:34;;;;;;;9.20;8.30;;;;;;;9.27;100.00;98262.38;4894216;29;20242;-84
2023/04/13 05:54:02;;;;;;;9.03;8.13;;;;;;;9.24;100.00;98271.66;4903343;29;20675;-82
2023/04/13 05:56:29;;;;;;;9.27;8.30;;;;;;;9.25;100.00;98277.84;4916158;29;20210;-83
2023/04/13 05:58:59;;;;;;;9.10;8.03;;;;;;;9.27;100.00;98279.22;4903010;29;20217;-85
2023/04/13 06:01:28;;;;;;;9.23;8.33;;;;;;;9.29;100.00;98287.78;4901189;29;20281;-82
2023/04/13 06:03:55;;;;;;;10.70;9.70;;;;;;;9.41;100.00;98292.25;4916160;29;20340;-83
2023/04/13 06:06:26;;;;;;;6.53;5.83;;;;;;;9.42;100.00;98285.84;4915072;29;20217;-83
2023/04/13 06:08:53;;;;;;;7.77;6.97;;;;;;;9.56;100.00;98297.84;4901975;29;20202;-84
2023/04/13 06:11:21;;;;;;;7.53;6.93;;;;;;;9.64;100.00;98298.22;4900394;29;20241;-87
2023/04/13 06:13:50;;;;;;;4.33;3.93;;;;;;;9.76;100.00;98302.66;4891961;29;20724;-83
2023/04/13 06:16:17;;;;;;;2.30;2.10;;;;;;;9.85;100.00;98303.84;4915901;29;20210;-85
2023/04/13 06:18:44;;;;;;;3.53;1.83;;;;;;;9.94;100.00;98305.03;4900487;29;20237;-84
2023/04/13 06:21:11;;;;;;;1.70;1.60;;;;;;;9.89;100.00;98305.00;4905253;29;20734;-85
2023/04/13 06:23:38;;;;;;;2.17;1.50;;;;;;;9.95;100.00;98303.97;4903239;29;20210;-85
2023/04/13 06:26:15;;;;;;;1.50;1.40;;;;;;;9.98;100.00;98312.34;4901750;29;20705;-85
2023/04/13 06:28:49;;;;;;;1.77;1.60;;;;;;;9.97;100.00;98315.25;4909387;29;20297;-84
2023/04/13 06:31:26;;;;;;;2.63;1.47;;;;;;;9.96;100.00;98311.78;4907987;29;20225;-85
2023/04/13 06:33:57;;;;;;;6.43;1.63;;;;;;;9.91;100.00;98311.69;4915725;29;20206;-87
2023/04/13 06:36:29;;;;;;;2.63;1.50;;;;;;;9.95;100.00;98312.81;4918032;29;20256;-84
2023/04/13 06:38:58;;;;;;;3.67;1.50;;;;;;;9.89;100.00;98324.50;4884704;29;20233;-85
2023/04/13 06:41:26;;;;;;;4.37;2.40;;;;;;;10.04;100.00;98323.91;4902024;29;20202;-86
2023/04/13 06:44:11;;;;;;;3.13;2.10;;;;;;;10.12;100.00;98326.16;4899433;29;20209;-85
2023/04/13 06:46:53;;;;;;;3.33;2.73;;;;;;;10.02;100.00;98334.06;4899823;29;20198;-85
2023/04/13 06:49:24;;;;;;;2.73;1.40;;;;;;;10.14;100.00;98334.75;4914924;29;20207;-84
2023/04/13 06:51:51;;;;;;;1.80;1.60;;;;;;;10.13;100.00;98339.28;4901107;29;20210;-87
2023/04/13 06:54:18;;;;;;;2.27;1.30;;;;;;;10.11;100.00;98330.72;4884850;29;20198;-85
2023/04/13 06:56:55;;;;;;;1.53;1.10;;;;;;;10.10;100.00;98336.31;4899648;29;20202;-86
2023/04/13 06:59:21;;;;;;;0.90;0.60;;;;;;;10.06;100.00;98333.31;4899760;29;20201;-84
2023/04/13 07:01:48;;;;;;;0.63;0.60;;;;;;;10.12;100.00;98336.88;4891119;29;20329;-84
2023/04/13 07:04:15;;;;;;;1.20;0.60;;;;;;;10.06;100.00;98346.69;4913227;29;20233;-85
2023/04/13 07:06:44;;;;;;;1.47;0.60;;;;;;;9.97;100.00;98352.72;4902083;29;20194;-85
2023/04/13 07:09:11;;;;;;;0.70;0.67;;;;;;;9.88;100.00;98346.16;4899753;29;20214;-87
2023/04/13 07:11:37;;;;;;;1.23;0.77;;;;;;;9.85;100.00;98350.13;4902482;29;20305;-85
2023/04/13 07:14:06;;;;;;;2.40;0.90;;;;;;;9.88;100.00;98351.53;4899945;29;20201;-85
2023/04/13 07:16:36;;;;;;;1.90;1.00;;;;;;;9.85;100.00;98352.00;4889593;29;20209;-84
2023/04/13 07:19:03;;;;;;;0.60;0.50;;;;;;;9.87;100.00;98349.88;4887375;29;20238;-84
2023/04/13 07:21:33;;;;;;;0.50;0.50;;;;;;;9.95;100.00;98352.94;4918630;29;20202;-85
2023/04/13 07:24:03;;;;;;;2.43;0.60;;;;;;;10.02;100.00;98361.63;4915105;29;20214;-84
2023/04/13 07:26:31;;;;;;;0.67;0.60;;;;;;;10.07;100.00;98358.22;4910790;29;20308;-84
2023/04/13 07:28:58;;;;;;;1.03;0.67;;;;;;;10.14;100.00;98366.84;4885847;29;20214;-83
2023/04/13 07:31:34;;;;;;;0.80;0.80;;;;;;;10.21;100.00;98364.88;4902772;29;20230;-83
2023/04/13 07:34:01;;;;;;;1.13;0.80;;;;;;;10.31;100.00;98366.88;4887252;29;20226;-81
2023/04/13 07:36:33;;;;;;;1.63;1.00;;;;;;;10.50;100.00;98371.63;4900843;29;20202;-84
2023/04/13 07:39:07;;;;;;;0.70;0.50;;;;;;;10.60;100.00;98368.28;4913756;29;20281;-85
2023/04/13 07:41:40;;;;;;;0.47;0.40;;;;;;;10.40;100.00;98371.53;4901556;29;20209;-82
2023/04/13 07:44:10;;;;;;;1.00;0.50;;;;;;;10.39;100.00;98374.44;4902759;29;20233;-82
2023/04/13 07:46:39;;;;;;;0.77;0.53;;;;;;;10.35;100.00;98379.50;4915921;29;20219;-83
2023/04/13 07:49:06;;;;;;;1.53;0.40;;;;;;;10.18;100.00;98378.72;4916218;29;20202;-82
2023/04/13 07:51:35;;;;;;;0.93;0.40;;;;;;;10.17;100.00;98377.13;4895067;29;20306;-84
2023/04/13 07:54:02;;;;;;;0.57;0.40;;;;;;;10.15;100.00;98372.00;4900198;29;20202;-82
2023/04/13 07:56:30;;;;;;;1.00;0.40;;;;;;;10.15;100.00;98385.38;4896343;29;20210;-83
2023/04/13 07:58:59;;;;;;;1.50;0.60;;;;;;;10.15;100.00;98380.03;4898938;29;20686;-83
2023/04/13 08:01:26;;;;;;;1.43;0.40;;;;;;;10.18;100.00;98381.41;4914084;29;20214;-83
2023/04/13 08:03:55;;;;;;;0.43;0.40;;;;;;;10.26;100.00;98381.00;4914679;29;20207;-84
2023/04/13 08:06:26;;;;;;;0.40;0.40;;;;;;;10.35;100.00;98378.69;4902640;29;20671;-84
2023/04/13 08:08:53;;;;;;;0.50;0.50;;;;;;;10.39;100.00;98379.81;4897467;29;20207;-82
2023/04/13 08:11:20;;;;;;;1.57;0.60;;;;;;;10.44;100.00;98386.03;4920051;29;20218;-82
2023/04/13 08:13:52;;;;;;;0.40;0.40;;;;;;;10.47;100.00;98376.69;4900207;29;20221;-83
2023/04/13 08:16:22;;;;;;;1.27;0.40;;;;;;;10.47;100.00;98385.53;4881515;29;20540;-85
2023/04/13 08:18:52;;;;;;;0.40;0.40;;;;;;;10.47;100.00;98388.22;4873448;29;20976;-83
2023/04/13 08:21:20;;;;;;;1.17;0.30;;;;;;;10.55;100.00;98392.31;4898314;29;20258;-82
2023/04/13 08:23:47;;;;;;;0.43;0.30;;;;;;;10.64;100.00;98387.34;4896953;29;20209;-84
2023/04/13 08:26:17;;;;;;;0.50;0.30;;;;;;;10.67;100.00;98395.69;4880682;29;20199;-84
2023/04/13 08:28:46;;;;;;;0.40;0.40;;;;;;;10.87;100.00;98379.84;4868660;29;20205;-84
2023/04/13 08:31:14;;;;;;;0.70;0.30;;;;;;;11.04;100.00;98385.13;4895573;29;20214;-83
2023/04/13 08:33:47;;;;;;;0.80;0.40;;;;;;;11.19;100.00;98385.28;4887401;29;20276;-83
2023/04/13 08:36:16;;;;;;;0.30;0.30;;;;;;;11.56;100.00;98393.38;4867469;29;20270;-84
2023/04/13 08:38:46;;;;;;;1.10;0.30;;;;;;;12.11;100.00;98392.22;4883301;29;20225;-81
2023/04/13 08:41:13;;;;;;;0.50;0.40;;;;;;;12.57;100.00;98391.38;4899228;29;20698;-82
2023/04/13 08:43:40;;;;;;;1.53;0.50;;;;;;;13.12;100.00;98384.59;4882460;29;20209;-82
2023/04/13 08:46:08;;;;;;;0.50;0.33;;;;;;;13.37;100.00;98381.13;4883795;29;20293;-82
2023/04/13 08:48:52;;;;;;;0.73;0.33;;;;;;;13.64;100.00;98381.69;4897950;29;20218;-84
2023/04/13 08:51:35;;;;;;;0.63;0.30;;;;;;;14.05;100.00;98377.88;4900105;29;20252;-82
2023/04/13 08:54:05;;;;;;;0.43;0.40;;;;;;;14.51;100.00;98391.28;4899862;29;20427;-82
2023/04/13 08:56:37;;;;;;;0.77;0.30;;;;;;;14.60;100.00;98378.84;4873312;29;20219;-85
2023/04/13 08:59:18;;;;;;;0.50;0.23;;;;;;;14.42;100.00;98374.84;4882542;29;20648;-83
2023/04/13 09:01:46;;;;;;;0.37;0.20;;;;;;;14.35;100.00;98381.59;4900399;29;20206;-82
2023/04/13 09:04:16;;;;;;;2.00;0.40;;;;;;;14.75;100.00;98376.06;4880662;29;20318;-82
2023/04/13 09:06:49;;;;;;;0.30;0.30;;;;;;;14.78;100.00;98372.84;4897077;29;20951;-81
2023/04/13 09:09:18;;;;;;;0.27;0.23;;;;;;;14.69;100.00;98377.19;4882340;29;20203;-82
2023/04/13 09:11:44;;;;;;;0.27;0.27;;;;;;;14.82;100.00;98376.59;4881658;29;20234;-83
2023/04/13 09:14:18;;;;;;;0.50;0.20;;;;;;;14.63;100.00;98372.91;4880856;29;20215;-81
2023/04/13 09:16:46;;;;;;;0.30;0.30;;;;;;;14.03;100.00;98371.16;4897366;29;20211;-81
2023/04/13 09:19:32;;;;;;;0.30;0.30;;;;;;;13.95;100.00;98377.88;4896126;29;20250;-82
2023/04/13 09:22:13;;;;;;;0.20;0.20;;;;;;;13.97;100.00;98377.63;4885557;29;20195;-83
2023/04/13 09:24:40;;;;;;;1.23;0.30;;;;;;;13.68;100.00;98378.19;4869750;29;20941;-81
2023/04/13 09:27:19;;;;;;;0.97;0.23;;;;;;;13.45;100.00;98386.78;4868715;29;20214;-84
2023/04/13 09:29:49;;;;;;;0.60;0.30;;;;;;;13.09;100.00;98375.16;4901755;29;20310;-82
2023/04/13 09:32:23;;;;;;;0.30;0.20;;;;;;;13.00;100.00;98379.44;4871975;29;20217;-86
2023/04/13 09:35:03;;;;;;;0.30;0.20;;;;;;;13.00;100.00;98367.88;4902222;29;20206;-82
2023/04/13 09:37:38;;;;;;;0.30;0.30;;;;;;;12.94;100.00;98377.78;4869789;29;20310;-82
2023/04/13 09:40:12;;;;;;;0.37;0.37;;;;;;;13.13;100.00;98375.44;4902430;29;20277;-82
2023/04/13 09:42:40;;;;;;;0.63;0.30;;;;;;;13.33;100.00;98369.31;4881402;29;20817;-84
2023/04/13 09:45:08;;;;;;;0.30;0.17;;;;;;;13.58;100.00;98372.81;4880800;29;20241;-83
2023/04/13 09:47:39;;;;;;;0.20;0.20;;;;;;;14.15;100.00;98368.16;4865553;29;20198;-84
2023/04/13 09:50:17;;;;;;;0.43;0.20;;;;;;;14.30;100.00;98368.94;4882601;29;20213;-83
2023/04/13 09:52:45;;;;;;;0.20;0.20;;;;;;;14.26;100.00;98365.19;4901964;29;20226;-82
2023/04/13 09:55:16;;;;;;;0.30;0.30;;;;;;;14.10;100.00;98364.41;4898246;29;20198;-84
2023/04/13 09:57:43;;;;;;;0.50;0.20;;;;;;;14.00;100.00;98369.81;4883653;29;20207;-82
2023/04/13 10:00:19;;;;;;;0.43;0.30;;;;;;;14.65;100.00;98359.16;4901930;29;20238;-82
2023/04/13 10:02:50;;;;;;;0.53;0.20;;;;;;;14.70;100.00;98368.00;4882883;29;20196;-81
2023/04/13 10:05:18;;;;;;;0.20;0.20;;;;;;;15.16;100.00;98365.91;4899938;29;20198;-82
2023/04/13 10:07:45;;;;;;;0.20;0.20;;;;;;;14.77;100.00;98356.94;4898104;29;20509;-81
2023/04/13 10:10:12;;;;;;;0.20;0.20;;;;;;;14.84;100.00;98360.94;4884662;29;20707;-82
2023/04/13 10:12:45;;;;;;;0.93;0.30;;;;;;;14.62;100.00;98363.19;4901195;29;20218;-81
2023/04/13 10:15:24;;;;;;;0.50;0.30;;;;;;;14.67;100.00;98367.75;4881255;29;20211;-82
2023/04/13 10:18:09;;;;;;;0.20;0.20;;;;;;;15.30;100.00;98368.78;4898700;29;20206;-82
2023/04/13 10:20:36;;;;;;;0.20;0.20;;;;;;;15.08;100.00;98358.38;4884029;29;20381;-82
2023/04/13 10:23:03;;;;;;;0.30;0.20;;;;;;;15.64;100.00;98355.28;4881775;29;20289;-81
2023/04/13 10:25:35;;;;;;;0.73;0.20;;;;;;;15.44;100.00;98358.94;4897759;29;20230;-82
2023/04/13 10:28:08;;;;;;;0.10;0.10;;;;;;;15.58;100.00;98346.47;4865730;29;20290;-81
2023/04/13 10:30:34;;;;;;;0.30;0.30;;;;;;;15.68;100.00;98343.66;4903999;29;20328;-82
2023/04/13 10:33:08;;;;;;;0.23;0.20;;;;;;;15.93;100.00;98349.91;4901936;29;20229;-80
2023/04/13 10:35:41;;;;;;;0.53;0.30;;;;;;;15.99;100.00;98343.38;4901068;29;20196;-81
2023/04/13 10:38:10;;;;;;;0.20;0.20;;;;;;;15.49;97.12;98341.91;4887762;29;20230;-82
2023/04/13 10:40:44;;;;;;;0.30;0.20;;;;;;;15.15;99.61;98344.59;4883268;29;20204;-82
2023/04/13 10:43:11;;;;;;;0.30;0.30;;;;;;;14.91;100.00;98344.47;4902657;29;20198;-82
2023/04/13 10:45:38;;;;;;;0.37;0.30;;;;;;;15.02;100.00;98358.69;4898054;29;20203;-80
2023/04/13 10:48:06;;;;;;;0.93;0.40;;;;;;;14.24;100.00;98342.28;4896843;29;20210;-83
2023/04/13 10:50:33;;;;;;;0.37;0.33;;;;;;;14.11;100.00;98330.19;4900396;29;20194;-82
2023/04/13 10:53:04;;;;;;;0.47;0.30;;;;;;;13.93;100.00;98325.41;4898172;29;20234;-82
2023/04/13 10:55:34;;;;;;;0.40;0.30;;;;;;;13.72;100.00;98327.31;4908875;29;20214;-82
2023/04/13 10:58:02;;;;;;;0.20;0.20;;;;;;;13.60;100.00;98334.88;4901675;29;20198;-83
2023/04/13 11:00:29;;;;;;;0.40;0.30;;;;;;;13.48;100.00;98343.22;4885504;29;20227;-84
2023/04/13 11:03:15;;;;;;;0.13;0.13;;;;;;;13.26;100.00;98342.66;4894521;29;20206;-84
2023/04/13 11:05:48;;;;;;;0.30;0.20;;;;;;;12.96;100.00;98343.41;4879254;29;20216;-85
2023/04/13 11:08:17;;;;;;;0.20;0.20;;;;;;;12.56;100.00;98329.84;4906863;29;20202;-84
2023/04/13 11:10:51;;;;;;;0.60;0.40;;;;;;;12.92;100.00;98331.56;4866702;29;20202;-84
2023/04/13 11:13:18;;;;;;;0.50;0.40;;;;;;;12.54;100.00;98322.06;4897517;29;20218;-84
2023/04/13 11:15:46;;;;;;;0.30;0.30;;;;;;;12.27;100.00;98326.78;4899773;29;20505;-84
2023/04/13 11:18:23;;;;;;;0.30;0.30;;;;;;;11.99;100.00;98336.00;4878784;29;20234;-82
2023/04/13 11:20:50;;;;;;;0.43;0.37;;;;;;;12.10;100.00;98340.38;4876798;29;20207;-83
2023/04/13 11:23:19;;;;;;;0.40;0.40;;;;;;;12.12;100.00;98334.75;4904166;29;20299;-83
2023/04/13 11:26:00;;;;;;;0.47;0.47;;;;;;;12.03;100.00;98339.81;4901536;29;20205;-82
2023/04/13 11:28:42;;;;;;;0.50;0.30;;;;;;;12.26;100.00;98333.22;4885661;29;20597;-84
2023/04/13 11:31:10;;;;;;;0.30;0.30;;;;;;;12.46;100.00;98333.28;4903089;29;20750;-82
2023/04/13 11:33:43;;;;;;;0.30;0.30;;;;;;;12.79;100.00;98334.75;4900102;29;20238;-83
2023/04/13 11:36:10;;;;;;;1.23;0.40;;;;;;;13.32;100.00;98341.59;4898448;29;20210;-84
2023/04/13 11:38:38;;;;;;;0.50;0.40;;;;;;;13.12;100.00;98345.06;4896457;29;20327;-85
2023/04/13 11:41:05;;;;;;;0.37;0.37;;;;;;;12.93;100.00;98338.53;4900936;29;20209;-84
2023/04/13 11:43:44;;;;;;;0.30;0.30;;;;;;;12.75;100.00;98353.28;4895654;29;20297;-84
2023/04/13 11:46:13;;;;;;;0.30;0.30;;;;;;;12.64;100.00;98356.22;4875975;29;20499;-83
2023/04/13 11:48:42;;;;;;;0.50;0.47;;;;;;;12.15;100.00;98361.88;4908606;29;20962;-84